Time;durP1;ratioP1;P1;durP2;ratioP2;P2;SDS_P1;SDS_P2;PMS_P1;PMS_P2;Temp;Humidity;BMP_temperature;BMP_pressure;BME280_temperature;BME280_humidity;BME280_pressure;Samples;Min_cycle;Max_cycle;Signal;HPM_P1;HPM_P2
2021/05/27 00:02:13;;;;;;;21.20;10.60;;;11.60;99.90;;;;;;5107218;28;20348;-39
2021/05/27 00:04:39;;;;;;;18.42;9.77;;;11.60;99.90;;;;;;5106246;28;20562;-40
2021/05/27 00:07:04;;;;;;;18.70;9.93;;;11.50;99.90;;;;;;5106241;28;20256;-40
2021/05/27 00:09:30;;;;;;;18.98;10.38;;;11.60;99.90;;;;;;5107097;28;20020;-40
2021/05/27 00:11:56;;;;;;;16.75;9.40;;;11.50;99.90;;;;;;5106527;28;20469;-41
2021/05/27 00:14:21;;;;;;;16.77;8.45;;;11.50;99.90;;;;;;5106489;28;20504;-40
2021/05/27 00:16:48;;;;;;;17.27;8.98;;;11.50;99.90;;;;;;5105969;28;20759;-39
2021/05/27 00:19:13;;;;;;;16.15;8.25;;;11.40;99.90;;;;;;5106784;28;20043;-39
2021/05/27 00:21:39;;;;;;;16.55;8.40;;;11.50;99.90;;;;;;5106179;28;20676;-40
2021/05/27 00:24:06;;;;;;;15.70;8.52;;;11.40;99.90;;;;;;5107041;28;20032;-38
2021/05/27 00:26:31;;;;;;;22.42;9.77;;;11.50;99.90;;;;;;5106376;28;20529;-37
2021/05/27 00:28:57;;;;;;;15.13;9.13;;;11.40;99.90;;;;;;5105798;28;20046;-37
2021/05/27 00:31:23;;;;;;;15.20;8.35;;;11.40;99.90;;;;;;5106815;28;20451;-38
2021/05/27 00:33:48;;;;;;;20.98;9.02;;;11.30;99.90;;;;;;5106282;28;20027;-39
2021/05/27 00:36:14;;;;;;;16.60;9.02;;;11.30;99.90;;;;;;5106316;28;20023;-40
2021/05/27 00:38:39;;;;;;;22.40;10.52;;;11.30;99.90;;;;;;5106546;28;20028;-42
2021/05/27 00:41:05;;;;;;;22.10;10.35;;;11.30;99.90;;;;;;5106146;28;20020;-41
2021/05/27 00:43:30;;;;;;;17.90;9.45;;;11.30;99.90;;;;;;5106362;28;20032;-41
2021/05/27 00:45:56;;;;;;;19.52;10.80;;;11.30;99.90;;;;;;5106127;28;20050;-43
2021/05/27 00:51:06;;;;;;;19.45;10.10;;;11.20;99.90;;;;;;5107033;28;20046;-42
2021/05/27 00:53:32;;;;;;;21.85;9.80;;;11.20;99.90;;;;;;5106070;28;20028;-41
2021/05/27 00:56:04;;;;;;;17.50;9.02;;;11.20;99.90;;;;;;5105687;28;20034;-45
2021/05/27 00:58:31;;;;;;;22.35;9.88;;;11.20;99.90;;;;;;5095331;28;20019;-41
2021/05/27 01:00:59;;;;;;;20.23;9.52;;;11.10;99.90;;;;;;5106718;28;20042;-41
2021/05/27 01:03:25;;;;;;;26.92;10.40;;;11.10;99.90;;;;;;5105383;28;20048;-43
2021/05/27 01:05:50;;;;;;;23.45;10.75;;;11.10;99.90;;;;;;5105769;28;20473;-41
2021/05/27 01:08:16;;;;;;;18.60;8.65;;;11.10;99.90;;;;;;5106711;28;20515;-41
2021/05/27 01:10:41;;;;;;;17.83;9.13;;;11.10;99.90;;;;;;5105159;28;20111;-40
2021/05/27 01:13:07;;;;;;;21.23;10.35;;;11.00;99.90;;;;;;5109880;28;20050;-39
2021/05/27 01:15:35;;;;;;;15.10;8.50;;;11.00;99.90;;;;;;5109918;28;20471;-42
2021/05/27 01:18:14;;;;;;;17.02;9.20;;;11.00;99.90;;;;;;5109000;28;20028;-41
2021/05/27 01:20:54;;;;;;;17.27;9.02;;;11.00;99.90;;;;;;5089763;28;20504;-40
2021/05/27 01:23:22;;;;;;;19.20;8.88;;;10.90;99.90;;;;;;5106383;28;20032;-41
2021/05/27 01:25:50;;;;;;;18.15;9.35;;;10.90;99.90;;;;;;5109367;28;20450;-40
2021/05/27 01:28:15;;;;;;;16.27;7.70;;;10.80;99.90;;;;;;5109894;28;20031;-41
2021/05/27 01:30:42;;;;;;;16.55;9.20;;;10.90;99.90;;;;;;5108285;28;20054;-41
2021/05/27 01:33:12;;;;;;;16.52;8.85;;;10.80;99.90;;;;;;5109316;28;20035;-42
2021/05/27 01:35:39;;;;;;;18.15;8.23;;;10.80;99.90;;;;;;5109249;28;20447;-40
2021/05/27 01:38:19;;;;;;;15.95;8.20;;;10.70;99.90;;;;;;5108560;28;20115;-36
2021/05/27 01:40:45;;;;;;;20.00;8.43;;;10.70;99.90;;;;;;5109076;28;20030;-41
2021/05/27 01:43:11;;;;;;;15.30;7.90;;;10.70;99.90;;;;;;5109069;28;20031;-41
2021/05/27 01:45:38;;;;;;;16.02;8.32;;;10.70;99.90;;;;;;5109000;28;20028;-39
2021/05/27 01:48:04;;;;;;;13.27;7.72;;;10.70;99.90;;;;;;5107880;28;20332;-42
2021/05/27 01:50:30;;;;;;;18.25;8.25;;;10.70;99.90;;;;;;5109179;28;20115;-42
2021/05/27 01:53:08;;;;;;;13.90;7.93;;;10.70;99.90;;;;;;5108237;28;20068;-40
2021/05/27 01:55:34;;;;;;;18.80;8.50;;;10.60;99.90;;;;;;5098642;28;20484;-41
2021/05/27 01:58:00;;;;;;;11.93;7.15;;;10.60;99.90;;;;;;5108776;28;20566;-43
2021/05/27 02:00:28;;;;;;;14.98;7.63;;;10.60;99.90;;;;;;5108580;28;20034;-40
2021/05/27 02:02:57;;;;;;;17.48;8.50;;;10.50;99.90;;;;;;5108593;28;20032;-41
2021/05/27 02:05:23;;;;;;;16.05;7.95;;;10.50;99.90;;;;;;5108899;28;20073;-41
2021/05/27 02:07:49;;;;;;;17.27;8.13;;;10.50;99.90;;;;;;5108041;28;20049;-40
2021/05/27 02:10:15;;;;;;;14.45;7.72;;;10.50;99.90;;;;;;5108850;28;20024;-40
2021/05/27 02:12:40;;;;;;;14.63;8.18;;;10.50;99.90;;;;;;5108060;27;20027;-42
2021/05/27 02:15:07;;;;;;;14.98;8.32;;;10.50;99.90;;;;;;5108975;28;20031;-41
2021/05/27 02:17:33;;;;;;;10.35;7.28;;;10.50;99.90;;;;;;5108822;28;20386;-43
2021/05/27 02:19:58;;;;;;;13.75;7.38;;;10.50;99.90;;;;;;5107953;28;20439;-41
2021/05/27 02:22:24;;;;;;;10.90;7.70;;;10.50;99.90;;;;;;5108368;28;20043;-41
2021/05/27 02:24:50;;;;;;;15.80;7.93;;;10.50;99.90;;;;;;5107833;28;20339;-40
2021/05/27 02:27:15;;;;;;;15.70;8.15;;;10.50;99.90;;;;;;5108472;28;20035;-42
2021/05/27 02:29:41;;;;;;;14.57;7.57;;;10.50;99.90;;;;;;5108072;28;20508;-40
2021/05/27 02:32:07;;;;;;;19.00;8.10;;;10.50;99.90;;;;;;5108845;28;20074;-41
2021/05/27 02:34:33;;;;;;;12.43;7.50;;;10.50;99.90;;;;;;5107342;28;20044;-40
2021/05/27 02:36:58;;;;;;;13.55;7.65;;;10.40;99.90;;;;;;5108541;28;20035;-39
2021/05/27 02:39:24;;;;;;;17.50;8.18;;;10.50;99.90;;;;;;5108476;28;20083;-40
2021/05/27 02:41:49;;;;;;;13.80;7.40;;;10.40;99.90;;;;;;5107684;28;20115;-40
2021/05/27 02:44:15;;;;;;;14.65;7.40;;;10.40;99.90;;;;;;5108506;28;20031;-39
2021/05/27 02:46:41;;;;;;;14.80;8.13;;;10.40;99.90;;;;;;5103779;28;20022;-39
2021/05/27 02:49:06;;;;;;;16.08;7.85;;;10.40;99.90;;;;;;5108054;28;20445;-41
2021/05/27 02:51:32;;;;;;;14.65;8.23;;;10.40;99.90;;;;;;5108029;28;20035;-42
2021/05/27 02:53:58;;;;;;;20.23;9.13;;;10.40;99.90;;;;;;5107838;28;20631;-40
2021/05/27 02:56:24;;;;;;;15.20;7.78;;;10.40;99.90;;;;;;5107466;28;20114;-39
2021/05/27 02:58:49;;;;;;;11.73;7.53;;;10.40;99.90;;;;;;5107724;28;20095;-39
2021/05/27 03:01:15;;;;;;;16.23;8.20;;;10.40;99.90;;;;;;5107772;28;20422;-41
2021/05/27 03:03:41;;;;;;;13.88;8.32;;;10.40;99.90;;;;;;5106719;28;20038;-40
2021/05/27 03:06:06;;;;;;;14.35;8.65;;;10.40;99.90;;;;;;5108389;28;20507;-41
2021/05/27 03:08:32;;;;;;;14.30;8.07;;;10.40;99.90;;;;;;5107372;28;20034;-41
2021/05/27 03:10:58;;;;;;;17.77;9.63;;;10.40;99.90;;;;;;5107219;28;20106;-38
2021/05/27 03:13:23;;;;;;;19.73;9.93;;;10.30;99.90;;;;;;5107779;28;20027;-41
2021/05/27 03:15:49;;;;;;;16.23;8.68;;;10.30;99.90;;;;;;5107180;28;20430;-40
2021/05/27 03:18:17;;;;;;;17.30;8.40;;;10.30;99.90;;;;;;5107794;28;20099;-40
2021/05/27 03:20:43;;;;;;;13.25;8.95;;;10.30;99.90;;;;;;5106593;28;20107;-40
2021/05/27 03:23:08;;;;;;;17.73;8.50;;;10.30;99.90;;;;;;5107741;28;20365;-40
2021/05/27 03:25:34;;;;;;;13.95;8.43;;;10.30;99.90;;;;;;5107191;28;20432;-40
2021/05/27 03:28:00;;;;;;;16.17;8.10;;;10.30;99.90;;;;;;5107263;28;20567;-40
2021/05/27 03:30:26;;;;;;;16.40;9.20;;;10.30;99.90;;;;;;5107668;28;20339;-40
2021/05/27 03:32:52;;;;;;;18.70;8.32;;;10.30;99.90;;;;;;5106101;28;20431;-41
2021/05/27 03:35:18;;;;;;;15.43;8.18;;;10.30;99.90;;;;;;5107111;28;20023;-42
2021/05/27 03:37:43;;;;;;;17.00;8.38;;;10.30;99.90;;;;;;5106609;28;20452;-41
2021/05/27 03:40:12;;;;;;;17.45;8.48;;;10.40;99.90;;;;;;5107520;28;20019;-41
2021/05/27 03:42:39;;;;;;;19.05;9.07;;;10.40;99.90;;;;;;5106985;28;20047;-45
2021/05/27 03:45:10;;;;;;;15.18;8.45;;;10.30;99.90;;;;;;5106327;28;20027;-39
2021/05/27 03:47:35;;;;;;;17.15;8.73;;;10.30;99.90;;;;;;5139664;27;20111;-36
2021/05/27 03:50:01;;;;;;;15.48;8.70;;;10.30;99.90;;;;;;5107181;28;20107;-40
2021/05/27 03:52:27;;;;;;;17.70;9.38;;;10.30;99.90;;;;;;5106662;28;20039;-43
2021/05/27 03:54:52;;;;;;;16.20;9.13;;;10.30;99.90;;;;;;5107635;27;20107;-40
2021/05/27 03:57:21;;;;;;;17.88;8.63;;;10.30;99.90;;;;;;5106921;28;20176;-40
2021/05/27 04:02:31;;;;;;;16.80;7.97;;;10.30;99.90;;;;;;5106713;28;20058;-42
2021/05/27 04:07:41;;;;;;;13.07;7.25;;;10.30;99.90;;;;;;5106562;28;20034;-41
2021/05/27 04:10:08;;;;;;;13.48;7.03;;;10.30;99.90;;;;;;5106935;28;20130;-41
2021/05/27 04:12:46;;;;;;;14.75;7.88;;;10.30;99.90;;;;;;5106168;28;20102;-41
2021/05/27 04:15:23;;;;;;;13.45;6.75;;;10.30;99.90;;;;;;5096720;28;20489;-43
2021/05/27 04:18:01;;;;;;;13.02;7.43;;;10.30;99.90;;;;;;5106520;28;20033;-41
2021/05/27 04:20:32;;;;;;;12.65;6.45;;;10.30;99.90;;;;;;5096953;28;20024;-40
2021/05/27 04:22:58;;;;;;;14.57;7.03;;;10.30;99.90;;;;;;5106359;28;20042;-40
2021/05/27 04:25:25;;;;;;;10.88;7.05;;;10.30;99.90;;;;;;5106676;28;20016;-40
2021/05/27 04:27:52;;;;;;;16.45;7.90;;;10.30;99.90;;;;;;5106199;28;20145;-40
2021/05/27 04:30:19;;;;;;;11.55;6.80;;;10.30;99.90;;;;;;5106980;28;20032;-40
2021/05/27 04:32:58;;;;;;;14.77;7.18;;;10.30;99.90;;;;;;5105824;28;20035;-40
2021/05/27 04:35:25;;;;;;;15.05;7.30;;;10.30;99.90;;;;;;5103507;28;20020;-40
2021/05/27 04:37:51;;;;;;;14.02;6.82;;;10.30;99.90;;;;;;5106321;28;20067;-40
2021/05/27 04:40:17;;;;;;;14.40;7.00;;;10.30;99.90;;;;;;5106026;28;20016;-40
2021/05/27 04:42:42;;;;;;;15.20;7.22;;;10.30;99.90;;;;;;5106553;28;20486;-41
2021/05/27 04:45:09;;;;;;;15.43;7.32;;;10.30;99.90;;;;;;5106433;28;20020;-40
2021/05/27 04:47:34;;;;;;;16.83;7.82;;;10.30;99.90;;;;;;5108774;28;20530;-41
2021/05/27 04:50:04;;;;;;;11.75;6.10;;;10.30;99.90;;;;;;5110505;28;20230;-40
2021/05/27 04:52:30;;;;;;;11.43;5.95;;;10.30;99.90;;;;;;5110325;28;20027;-41
2021/05/27 04:54:56;;;;;;;12.13;7.13;;;10.40;99.90;;;;;;5109840;28;20154;-41
2021/05/27 04:57:21;;;;;;;14.90;6.82;;;10.40;99.90;;;;;;5110779;28;20050;-41
2021/05/27 04:59:50;;;;;;;12.45;6.13;;;10.40;99.90;;;;;;5109646;28;21005;-40
2021/05/27 05:02:15;;;;;;;15.27;6.72;;;10.40;99.90;;;;;;5109932;28;20035;-41
2021/05/27 05:04:47;;;;;;;14.48;6.65;;;10.40;99.90;;;;;;5109482;28;20058;-41
2021/05/27 05:07:13;;;;;;;13.65;6.35;;;10.40;99.90;;;;;;5110488;28;20028;-41
2021/05/27 05:09:41;;;;;;;13.63;7.07;;;10.40;99.90;;;;;;5109412;28;20378;-41
2021/05/27 05:12:07;;;;;;;14.00;6.32;;;10.40;99.90;;;;;;5110334;28;20019;-39
2021/05/27 05:14:33;;;;;;;15.05;6.45;;;10.40;99.90;;;;;;5109836;28;20016;-41
2021/05/27 05:16:58;;;;;;;12.98;6.82;;;10.40;99.90;;;;;;5109426;28;20100;-41
2021/05/27 05:19:24;;;;;;;14.68;6.93;;;10.40;99.90;;;;;;5110158;28;20035;-40
2021/05/27 05:21:49;;;;;;;13.32;6.47;;;10.40;99.90;;;;;;5109161;28;20075;-40
2021/05/27 05:24:15;;;;;;;15.60;6.80;;;10.40;99.90;;;;;;5110091;28;20173;-41
2021/05/27 05:26:40;;;;;;;10.13;6.28;;;10.40;99.90;;;;;;5109613;28;20030;-38
2021/05/27 05:29:06;;;;;;;14.77;7.07;;;10.50;99.90;;;;;;5109881;28;20051;-41
2021/05/27 05:31:31;;;;;;;16.65;7.78;;;10.50;99.90;;;;;;5109228;28;20016;-40
2021/05/27 05:33:57;;;;;;;13.55;7.10;;;10.50;99.90;;;;;;5109325;28;20100;-40
2021/05/27 05:36:23;;;;;;;13.15;6.60;;;10.50;99.90;;;;;;5109713;28;20047;-40
2021/05/27 05:38:49;;;;;;;13.48;6.82;;;10.50;99.90;;;;;;5108811;28;20023;-40
2021/05/27 05:41:15;;;;;;;13.52;6.53;;;10.50;99.90;;;;;;5109435;28;20126;-41
2021/05/27 05:43:41;;;;;;;10.98;7.40;;;10.50;99.90;;;;;;5108701;28;20546;-41
2021/05/27 05:46:06;;;;;;;10.30;6.63;;;10.60;99.90;;;;;;5108743;28;20122;-40
2021/05/27 05:48:32;;;;;;;11.43;6.75;;;10.50;99.90;;;;;;5109285;28;20502;-42
2021/05/27 05:51:00;;;;;;;14.30;6.82;;;10.60;99.90;;;;;;5108594;28;20038;-41
2021/05/27 05:53:26;;;;;;;16.48;8.02;;;10.60;99.90;;;;;;5108991;28;20023;-41
2021/05/27 05:55:53;;;;;;;14.05;7.10;;;10.60;99.90;;;;;;5107652;28;20068;-40
2021/05/27 05:58:20;;;;;;;12.38;6.78;;;10.60;99.90;;;;;;5104061;28;20155;-40
2021/05/27 06:00:47;;;;;;;16.08;6.45;;;10.60;99.90;;;;;;5107526;27;20028;-40
2021/05/27 06:03:13;;;;;;;14.75;7.38;;;10.60;99.90;;;;;;5108494;28;20137;-40
2021/05/27 06:05:39;;;;;;;14.50;6.43;;;10.60;99.90;;;;;;5107603;28;20439;-40
2021/05/27 06:08:05;;;;;;;16.77;6.90;;;10.60;99.90;;;;;;5108276;28;20118;-40
2021/05/27 06:10:31;;;;;;;15.55;6.85;;;10.50;99.90;;;;;;5108951;28;20027;-41
2021/05/27 06:12:57;;;;;;;12.77;6.82;;;10.50;99.90;;;;;;5107372;28;20124;-41
2021/05/27 06:15:24;;;;;;;14.30;6.68;;;10.50;99.90;;;;;;5108722;28;20031;-42
2021/05/27 06:17:51;;;;;;;13.77;5.97;;;10.60;99.90;;;;;;5107582;28;20024;-40
2021/05/27 06:20:18;;;;;;;14.80;6.63;;;10.60;99.90;;;;;;5108132;28;20034;-42
2021/05/27 06:22:50;;;;;;;12.32;6.88;;;10.60;99.90;;;;;;5107544;28;20077;-42
2021/05/27 06:25:17;;;;;;;11.43;6.38;;;10.60;99.90;;;;;;5109075;28;20106;-41
2021/05/27 06:27:43;;;;;;;13.52;6.20;;;10.50;99.90;;;;;;5106770;28;20145;-43
2021/05/27 06:30:10;;;;;;;15.55;6.53;;;10.60;99.90;;;;;;5109250;27;20036;-41
2021/05/27 06:32:37;;;;;;;14.32;6.85;;;10.60;99.90;;;;;;5108511;28;20034;-43
2021/05/27 06:35:08;;;;;;;15.05;6.43;;;10.60;99.90;;;;;;5108266;28;20092;-42
2021/05/27 06:37:38;;;;;;;12.10;7.30;;;10.60;99.90;;;;;;5094394;28;20028;-42
2021/05/27 06:40:12;;;;;;;13.10;6.03;;;10.50;99.90;;;;;;5108305;28;20041;-42
2021/05/27 06:42:37;;;;;;;13.68;6.72;;;10.50;99.90;;;;;;5108691;28;20035;-42
2021/05/27 06:45:04;;;;;;;12.18;6.05;;;10.60;99.90;;;;;;5108882;28;20011;-42
2021/05/27 06:47:30;;;;;;;15.75;7.03;;;10.60;99.90;;;;;;5107951;28;21145;-41
2021/05/27 06:49:55;;;;;;;12.32;6.38;;;10.60;99.90;;;;;;5109282;28;20500;-41
2021/05/27 06:52:24;;;;;;;11.35;5.90;;;10.60;99.90;;;;;;5108909;28;20702;-41
2021/05/27 06:54:55;;;;;;;13.52;6.47;;;10.60;99.90;;;;;;5107383;28;20076;-41
2021/05/27 06:57:21;;;;;;;18.20;7.05;;;10.60;99.90;;;;;;5108863;28;20019;-43
2021/05/27 06:59:47;;;;;;;14.85;7.22;;;10.60;99.90;;;;;;5107191;28;20027;-41
2021/05/27 07:02:12;;;;;;;14.05;6.68;;;10.70;99.90;;;;;;5107815;28;20028;-41
2021/05/27 07:04:39;;;;;;;13.98;5.88;;;10.70;99.90;;;;;;5107351;28;20051;-40
2021/05/27 07:07:05;;;;;;;12.07;5.75;;;10.70;99.90;;;;;;5108312;28;20122;-43
2021/05/27 07:09:30;;;;;;;12.13;5.80;;;10.70;99.90;;;;;;5107187;28;20031;-41
2021/05/27 07:11:56;;;;;;;11.77;5.35;;;10.80;99.90;;;;;;5108048;28;20494;-43
2021/05/27 07:14:21;;;;;;;10.52;5.45;;;10.80;99.90;;;;;;5108631;28;20114;-39
2021/05/27 07:16:47;;;;;;;11.07;5.57;;;10.80;99.90;;;;;;5107391;28;20020;-42
2021/05/27 07:19:12;;;;;;;11.27;5.72;;;10.80;99.90;;;;;;5108211;28;20027;-39
2021/05/27 07:21:40;;;;;;;10.10;5.32;;;10.80;99.90;;;;;;5108006;28;20034;-43
2021/05/27 07:24:06;;;;;;;10.82;5.50;;;10.80;99.90;;;;;;5107203;28;20033;-43
2021/05/27 07:26:32;;;;;;;13.57;5.57;;;10.80;99.90;;;;;;5107875;28;20023;-40
2021/05/27 07:28:58;;;;;;;10.77;5.55;;;10.80;99.90;;;;;;5107685;28;20111;-42
2021/05/27 07:31:23;;;;;;;8.90;5.10;;;10.80;99.90;;;;;;5108306;28;20107;-42
2021/05/27 07:33:49;;;;;;;10.02;5.20;;;10.80;99.90;;;;;;5107354;28;20194;-42
2021/05/27 07:36:15;;;;;;;15.70;5.53;;;10.80;99.90;;;;;;5107365;28;20046;-41
2021/05/27 07:38:40;;;;;;;11.68;5.13;;;10.80;99.90;;;;;;5107552;28;20024;-39
2021/05/27 07:41:09;;;;;;;12.40;5.30;;;10.80;99.90;;;;;;5107796;28;20568;-41
2021/05/27 07:43:35;;;;;;;11.02;5.13;;;10.90;99.90;;;;;;5107084;28;20086;-42
2021/05/27 07:46:00;;;;;;;10.00;5.30;;;10.80;99.90;;;;;;5107424;28;20055;-41
2021/05/27 07:48:26;;;;;;;9.38;5.22;;;10.90;99.90;;;;;;5107565;28;20024;-41
2021/05/27 07:50:51;;;;;;;9.25;5.00;;;10.90;99.90;;;;;;5106652;28;20027;-40
2021/05/27 07:53:20;;;;;;;13.70;5.40;;;10.90;99.90;;;;;;5107895;28;20040;-41
2021/05/27 07:55:45;;;;;;;11.00;5.15;;;10.90;99.90;;;;;;5107328;28;20027;-40
2021/05/27 07:58:11;;;;;;;14.90;5.20;;;10.90;99.90;;;;;;5107660;28;20027;-41
2021/05/27 08:00:37;;;;;;;14.02;5.90;;;10.90;99.90;;;;;;5107139;28;20015;-40
2021/05/27 08:03:05;;;;;;;12.30;5.32;;;10.90;99.90;;;;;;5107336;28;20035;-40
2021/05/27 08:05:31;;;;;;;10.02;5.57;;;10.90;99.90;;;;;;5106699;28;20045;-41
2021/05/27 08:07:59;;;;;;;13.88;5.43;;;11.00;99.90;;;;;;5107577;28;20097;-42
2021/05/27 08:10:25;;;;;;;10.35;5.43;;;11.00;99.90;;;;;;5107743;28;20022;-41
2021/05/27 08:12:51;;;;;;;10.73;5.03;;;11.00;99.90;;;;;;5106361;28;20019;-43
2021/05/27 08:15:16;;;;;;;11.63;5.38;;;11.00;99.90;;;;;;5107933;28;20016;-42
2021/05/27 08:17:42;;;;;;;10.50;5.13;;;11.00;99.90;;;;;;5106901;28;20435;-42
2021/05/27 08:20:08;;;;;;;13.73;5.70;;;11.00;99.90;;;;;;5105411;28;20061;-42
2021/05/27 08:22:34;;;;;;;16.52;5.75;;;11.10;99.90;;;;;;5111001;28;20550;-43
2021/05/27 08:25:00;;;;;;;10.98;5.38;;;11.10;99.90;;;;;;5111426;28;20024;-42
2021/05/27 08:27:25;;;;;;;11.73;6.03;;;11.10;99.90;;;;;;5111162;28;20031;-42
2021/05/27 08:29:54;;;;;;;12.25;5.35;;;11.10;99.90;;;;;;5111108;28;20023;-41
2021/05/27 08:32:20;;;;;;;11.98;5.43;;;11.10;99.90;;;;;;5110646;28;20019;-41
2021/05/27 08:34:46;;;;;;;12.48;5.95;;;11.10;99.90;;;;;;5111032;28;20027;-44
2021/05/27 08:37:11;;;;;;;12.73;5.75;;;11.10;99.90;;;;;;5111386;28;20028;-40
2021/05/27 08:39:43;;;;;;;12.85;5.85;;;11.20;99.90;;;;;;5110728;28;20187;-43
2021/05/27 08:42:09;;;;;;;11.55;4.50;;;11.20;99.90;;;;;;5111992;27;20110;-42
2021/05/27 08:44:41;;;;;;;13.32;6.60;;;11.30;99.90;;;;;;5111127;28;20103;-42
2021/05/27 08:47:08;;;;;;;9.20;5.25;;;11.40;99.90;;;;;;5110692;28;20108;-40
2021/05/27 08:49:37;;;;;;;10.18;5.43;;;11.50;99.90;;;;;;5110162;28;20667;-42
2021/05/27 08:52:04;;;;;;;13.45;6.07;;;11.50;99.90;;;;;;5111204;28;20073;-42
2021/05/27 08:54:30;;;;;;;14.35;5.85;;;11.50;99.90;;;;;;5110761;28;20434;-43
2021/05/27 08:56:56;;;;;;;8.20;5.13;;;11.40;99.90;;;;;;5111140;28;20062;-44
2021/05/27 08:59:21;;;;;;;14.30;5.53;;;11.50;99.90;;;;;;5110871;27;20067;-41
2021/05/27 09:02:22;;;;;;;14.77;5.15;;;11.60;99.90;;;;;;5110891;27;20530;-41
2021/05/27 09:04:48;;;;;;;10.40;5.50;;;11.60;99.90;;;;;;5056105;28;20056;-43
2021/05/27 09:07:13;;;;;;;11.23;5.35;;;11.60;99.90;;;;;;5102342;28;20432;-42
2021/05/27 09:09:47;;;;;;;14.65;5.68;;;11.60;99.90;;;;;;5110380;28;20130;-42
2021/05/27 09:12:28;;;;;;;13.05;5.50;;;11.60;99.90;;;;;;5110778;28;20085;-41
2021/05/27 09:14:54;;;;;;;13.90;5.70;;;11.50;99.90;;;;;;5110513;28;20079;-42
2021/05/27 09:17:20;;;;;;;15.70;5.60;;;11.50;99.90;;;;;;5110584;28;20076;-41
2021/05/27 09:20:11;;;;;;;14.10;5.88;;;11.40;99.90;;;;;;5110110;28;20401;-46
2021/05/27 09:22:36;;;;;;;15.38;6.13;;;11.40;99.90;;;;;;5109929;28;20127;-42
2021/05/27 09:25:02;;;;;;;13.45;6.00;;;11.50;99.90;;;;;;5110673;28;20094;-45
2021/05/27 09:27:44;;;;;;;11.57;5.47;;;11.60;99.90;;;;;;5110336;28;20032;-42
2021/05/27 09:30:10;;;;;;;12.98;6.30;;;11.60;99.90;;;;;;5110630;28;20111;-42
2021/05/27 09:32:39;;;;;;;13.98;5.82;;;11.70;99.90;;;;;;5109611;28;20027;-42
2021/05/27 09:35:15;;;;;;;13.80;5.70;;;11.70;99.90;;;;;;5110003;28;20477;-40
2021/05/27 09:37:55;;;;;;;15.13;6.53;;;11.70;99.90;;;;;;5109843;28;20039;-40
2021/05/27 09:40:47;;;;;;;15.40;6.95;;;11.70;99.90;;;;;;5110041;28;20076;-42
2021/05/27 09:43:24;;;;;;;11.38;6.10;;;11.70;99.90;;;;;;5108317;28;20030;-42
2021/05/27 09:46:06;;;;;;;10.93;5.90;;;11.60;99.90;;;;;;5106816;28;20924;-40
2021/05/27 09:48:31;;;;;;;15.13;6.82;;;11.60;99.90;;;;;;5107399;28;20111;-42
2021/05/27 09:50:59;;;;;;;16.38;6.95;;;11.60;99.90;;;;;;5108584;28;20127;-47
2021/05/27 09:53:27;;;;;;;14.70;6.88;;;11.60;99.90;;;;;;5109504;28;20043;-41
2021/05/27 09:55:53;;;;;;;18.00;7.18;;;11.60;99.90;;;;;;5109343;28;20019;-43
2021/05/27 09:58:20;;;;;;;19.83;8.50;;;11.70;99.90;;;;;;5109518;28;20047;-41
2021/05/27 10:00:48;;;;;;;17.38;7.90;;;11.80;99.90;;;;;;5108918;28;20119;-40
2021/05/27 10:03:25;;;;;;;17.85;7.63;;;11.80;99.90;;;;;;5109717;28;20080;-41
2021/05/27 10:05:51;;;;;;;18.67;7.65;;;11.80;99.90;;;;;;5108330;28;20376;-41
2021/05/27 10:08:21;;;;;;;21.77;9.15;;;11.90;99.90;;;;;;5109443;28;20030;-41
2021/05/27 10:10:48;;;;;;;17.95;8.77;;;11.90;99.90;;;;;;5108977;28;20024;-42
2021/05/27 10:13:16;;;;;;;15.93;8.63;;;11.90;99.90;;;;;;5109948;27;20141;-41
2021/05/27 10:15:43;;;;;;;16.63;7.90;;;11.90;99.90;;;;;;5108606;27;20035;-40
2021/05/27 10:18:14;;;;;;;17.05;8.20;;;11.90;99.90;;;;;;5109499;28;20020;-42
2021/05/27 10:20:40;;;;;;;19.17;8.50;;;12.00;99.90;;;;;;5109092;27;20111;-42
2021/05/27 10:23:07;;;;;;;19.05;8.80;;;12.10;99.90;;;;;;5109302;28;20615;-43
2021/05/27 10:25:32;;;;;;;18.80;7.53;;;12.10;99.90;;;;;;5108578;28;20027;-43
2021/05/27 10:28:04;;;;;;;16.20;7.25;;;12.30;99.90;;;;;;5108745;28;20388;-40
2021/05/27 10:30:36;;;;;;;15.73;7.68;;;12.40;99.90;;;;;;5108743;27;20156;-41
2021/05/27 10:33:04;;;;;;;20.23;8.90;;;12.50;99.90;;;;;;5108481;28;20028;-41
2021/05/27 10:35:58;;;;;;;16.83;7.80;;;12.50;99.90;;;;;;5108573;28;20028;-40
2021/05/27 10:38:39;;;;;;;15.43;7.40;;;12.50;99.90;;;;;;5109587;27;20024;-41
2021/05/27 10:41:10;;;;;;;18.50;7.97;;;12.40;99.90;;;;;;5108015;28;20031;-41
2021/05/27 10:43:36;;;;;;;20.55;8.40;;;12.30;99.90;;;;;;5108669;28;20118;-41
2021/05/27 10:46:04;;;;;;;25.33;9.63;;;12.30;99.90;;;;;;5108282;28;20015;-41
2021/05/27 10:48:40;;;;;;;19.27;8.40;;;12.20;99.90;;;;;;5108849;28;20091;-41
2021/05/27 10:51:23;;;;;;;22.27;8.63;;;12.20;99.90;;;;;;5108610;28;20027;-41
2021/05/27 10:53:51;;;;;;;23.63;10.55;;;12.20;99.90;;;;;;5107690;28;20076;-42
2021/05/27 10:56:33;;;;;;;19.83;9.35;;;12.20;99.90;;;;;;5108795;28;20051;-41
2021/05/27 10:58:59;;;;;;;19.58;9.07;;;12.10;99.90;;;;;;5108616;28;20263;-42
2021/05/27 11:01:37;;;;;;;18.35;8.65;;;12.10;99.90;;;;;;5107797;28;20115;-41
2021/05/27 11:04:15;;;;;;;17.02;8.75;;;12.10;99.90;;;;;;5109572;27;20046;-41
2021/05/27 11:06:44;;;;;;;18.10;8.20;;;12.10;99.90;;;;;;5108104;28;20032;-40
2021/05/27 11:09:24;;;;;;;17.20;8.35;;;12.20;99.90;;;;;;5108243;28;20340;-41
2021/05/27 11:11:50;;;;;;;16.52;8.60;;;12.20;99.90;;;;;;5108132;28;20028;-40
2021/05/27 11:14:36;;;;;;;16.00;8.02;;;12.10;99.90;;;;;;5108588;28;20039;-43
2021/05/27 11:17:06;;;;;;;17.15;7.30;;;12.10;99.90;;;;;;5107902;28;20467;-41
2021/05/27 11:25:16;;;;;;;15.85;8.00;;;12.10;99.90;;;;;;5108009;28;20039;-40
2021/05/27 11:27:45;;;;;;;16.23;7.07;;;12.10;99.90;;;;;;5107358;28;20035;-42
2021/05/27 11:30:39;;;;;;;10.48;7.10;;;12.20;99.90;;;;;;5107709;28;20434;-42
2021/05/27 11:33:29;;;;;;;13.75;7.35;;;12.20;99.90;;;;;;5105321;28;20024;-40
2021/05/27 11:35:57;;;;;;;10.10;6.43;;;12.30;99.90;;;;;;5106190;28;20084;-41
2021/05/27 11:38:24;;;;;;;14.07;7.40;;;12.30;99.90;;;;;;5108100;28;20099;-40
2021/05/27 11:41:01;;;;;;;12.15;6.18;;;12.40;99.90;;;;;;5107234;28;20172;-42
2021/05/27 11:43:36;;;;;;;12.98;5.90;;;12.40;99.90;;;;;;5106928;28;20035;-41
2021/05/27 11:46:06;;;;;;;8.60;5.40;;;12.50;99.90;;;;;;5107546;28;20020;-41
2021/05/27 11:48:39;;;;;;;9.52;5.32;;;12.50;99.90;;;;;;5104884;28;20020;-42
2021/05/27 11:51:17;;;;;;;10.93;6.28;;;12.70;99.90;;;;;;5106616;28;20016;-41
2021/05/27 11:53:50;;;;;;;11.35;5.80;;;12.90;99.90;;;;;;5106350;28;20027;-40
2021/05/27 11:56:36;;;;;;;9.77;5.65;;;13.10;99.90;;;;;;5107050;28;20492;-41
2021/05/27 11:59:04;;;;;;;12.05;6.30;;;13.20;99.90;;;;;;5105564;28;20031;-42
2021/05/27 12:01:30;;;;;;;10.57;6.15;;;13.30;99.90;;;;;;5107949;28;20336;-42
2021/05/27 12:04:07;;;;;;;11.88;6.32;;;13.20;99.90;;;;;;5107261;28;20482;-39
2021/05/27 12:06:51;;;;;;;10.13;5.70;;;13.20;99.90;;;;;;5107765;28;20112;-40
2021/05/27 12:09:46;;;;;;;10.77;6.80;;;13.30;99.90;;;;;;5107761;28;20114;-42
2021/05/27 12:12:29;;;;;;;12.60;5.80;;;13.30;99.90;;;;;;5107566;28;20584;-41
2021/05/27 12:14:58;;;;;;;12.70;6.32;;;13.30;99.90;;;;;;5103438;28;20031;-41
2021/05/27 12:17:38;;;;;;;10.75;6.28;;;13.40;99.90;;;;;;5106895;28;20012;-42
2021/05/27 12:20:13;;;;;;;12.80;5.88;;;13.30;99.90;;;;;;5104556;28;20038;-43
2021/05/27 12:22:59;;;;;;;9.55;5.30;;;13.20;99.90;;;;;;5107461;28;20506;-43
2021/05/27 12:25:30;;;;;;;10.18;5.90;;;13.20;99.90;;;;;;5106894;28;20044;-40
2021/05/27 12:27:58;;;;;;;10.02;5.07;;;13.10;99.90;;;;;;5095660;28;20454;-41
2021/05/27 12:30:30;;;;;;;9.88;5.00;;;13.00;99.90;;;;;;5106937;28;20038;-41
2021/05/27 12:32:57;;;;;;;12.98;6.20;;;12.90;99.90;;;;;;5106950;28;20035;-43
2021/05/27 12:35:34;;;;;;;10.23;5.28;;;12.80;99.90;;;;;;5107487;28;20012;-42
2021/05/27 12:38:03;;;;;;;11.43;5.65;;;12.80;99.90;;;;;;5106896;28;20434;-41
2021/05/27 12:40:32;;;;;;;9.98;4.70;;;12.90;99.90;;;;;;5106544;28;20027;-41
2021/05/27 12:43:00;;;;;;;10.63;4.65;;;13.10;99.90;;;;;;5106742;28;20036;-41
2021/05/27 12:45:41;;;;;;;8.15;4.43;;;13.10;99.90;;;;;;5106936;28;20054;-43
2021/05/27 12:48:08;;;;;;;9.38;4.15;;;13.20;99.90;;;;;;5107387;28;20023;-40
2021/05/27 12:50:37;;;;;;;8.48;4.13;;;13.30;99.90;;;;;;5107094;28;20032;-40
2021/05/27 12:53:03;;;;;;;11.18;4.60;;;13.30;99.90;;;;;;5106416;28;20127;-41
2021/05/27 12:55:33;;;;;;;9.43;4.40;;;13.50;99.90;;;;;;5107103;28;20098;-42
2021/05/27 12:58:03;;;;;;;7.88;4.32;;;13.50;99.90;;;;;;5107310;28;20023;-41
2021/05/27 13:00:46;;;;;;;10.02;4.30;;;13.70;99.90;;;;;;5106410;28;20019;-41